createdAt,value
2023-04-18T00:02:10.673Z,11.4
2023-04-18T00:05:12.628Z,11.4
2023-04-18T00:08:14.525Z,12.9
2023-04-18T00:11:16.455Z,11.3
2023-04-18T00:14:18.472Z,11.9
2023-04-18T00:17:20.404Z,12.5
2023-04-18T00:20:22.389Z,12.1
2023-04-18T00:23:24.304Z,10.7
2023-04-18T00:26:26.316Z,9.8
2023-04-18T00:29:28.255Z,11
2023-04-18T00:32:30.251Z,10.9
2023-04-18T00:35:32.210Z,14.2
2023-04-18T00:38:34.157Z,12.6
2023-04-18T00:41:36.097Z,11.9
2023-04-18T00:44:38.052Z,13.4
2023-04-18T00:47:40.094Z,15.9
2023-04-18T00:50:44.804Z,11.5
2023-04-18T00:53:46.792Z,12.8
2023-04-18T00:56:48.735Z,12
2023-04-18T00:59:50.712Z,12.6
2023-04-18T01:02:52.743Z,11
2023-04-18T01:05:54.635Z,12.3
2023-04-18T01:08:56.628Z,11.9
2023-04-18T01:11:58.564Z,15.1
2023-04-18T01:15:00.550Z,13.5
2023-04-18T01:18:02.572Z,14.8
2023-04-18T01:21:04.460Z,14.5
2023-04-18T01:24:06.427Z,11.9
2023-04-18T01:27:08.416Z,15.3
2023-04-18T01:30:10.353Z,13.8
2023-04-18T01:33:12.309Z,12.7
2023-04-18T01:36:14.272Z,16
2023-04-18T01:39:16.253Z,13.4
2023-04-18T01:42:18.185Z,15.7
2023-04-18T01:45:20.197Z,16.4
2023-04-18T01:48:22.129Z,11.9
2023-04-18T01:51:24.125Z,15.2
2023-04-18T01:54:26.165Z,12.3
2023-04-18T01:57:28.076Z,15
2023-04-18T02:00:30.042Z,14.8
2023-04-18T02:03:32.166Z,13.8
2023-04-18T02:06:33.943Z,14.6
2023-04-18T02:09:35.882Z,14.3
2023-04-18T02:12:37.859Z,15.6
2023-04-18T02:15:39.800Z,13.2
2023-04-18T02:18:41.769Z,14.7
2023-04-18T02:21:43.715Z,16.8
2023-04-18T02:24:45.714Z,13.6
2023-04-18T02:27:47.657Z,21.4
2023-04-18T02:30:49.619Z,16.9
2023-04-18T02:33:51.579Z,15.1
2023-04-18T02:36:53.539Z,16.4
2023-04-18T02:39:55.489Z,18
2023-04-18T02:42:57.454Z,16.1
2023-04-18T02:45:59.483Z,14.8
2023-04-18T02:49:01.386Z,17.2
2023-04-18T02:52:03.323Z,18
2023-04-18T02:55:05.525Z,16
2023-04-18T02:58:07.285Z,16.7
2023-04-18T03:01:09.257Z,17.7
2023-04-18T03:04:11.243Z,19.1
2023-04-18T03:07:13.153Z,18.9
2023-04-18T03:10:15.187Z,20.5
2023-04-18T03:13:17.091Z,17.2
2023-04-18T03:16:19.065Z,21.3
2023-04-18T03:19:20.991Z,19.1
2023-04-18T03:22:22.956Z,23.1
2023-04-18T03:25:25.002Z,15.4
2023-04-18T03:28:26.875Z,18.3
2023-04-18T03:31:28.860Z,18.7
2023-04-18T03:34:30.823Z,22.8
2023-04-18T03:37:32.748Z,21.5
2023-04-18T03:40:34.722Z,22.9
2023-04-18T03:43:36.705Z,20.1
2023-04-18T03:46:38.690Z,17.5
2023-04-18T03:49:40.632Z,20.3
2023-04-18T03:52:42.612Z,21.9
2023-04-18T03:55:44.537Z,18.6
2023-04-18T03:58:46.532Z,23.1
2023-04-18T04:01:48.470Z,19.5
2023-04-18T04:04:50.423Z,21.2
2023-04-18T04:07:52.376Z,21.8
2023-04-18T04:10:54.345Z,21.9
2023-04-18T04:13:56.315Z,19.6
2023-04-18T04:16:58.256Z,23.7
2023-04-18T04:20:00.230Z,22.7
2023-04-18T04:23:02.237Z,23.4
2023-04-18T04:26:04.216Z,21.4
2023-04-18T04:29:06.166Z,21.2
2023-04-18T04:32:08.321Z,23.7
2023-04-18T04:35:10.208Z,22.5
2023-04-18T04:38:12.131Z,20.5
2023-04-18T04:41:14.088Z,23.1
2023-04-18T04:44:16.252Z,21.2
2023-04-18T04:47:17.990Z,23.2
2023-04-18T04:50:19.970Z,22.2
2023-04-18T04:53:21.940Z,23.9
2023-04-18T04:56:23.978Z,20.2
2023-04-18T04:59:25.919Z,22.8
2023-04-18T05:02:27.989Z,20.6
2023-04-18T05:05:29.869Z,20.8
2023-04-18T05:08:31.894Z,21.2
2023-04-18T05:11:33.816Z,20.7
2023-04-18T05:14:35.742Z,18.9
2023-04-18T05:17:37.787Z,19.3
2023-04-18T05:20:39.667Z,21.1
2023-04-18T05:23:41.650Z,21.3
2023-04-18T05:26:43.597Z,21.2
2023-04-18T05:29:45.549Z,22.9
2023-04-18T05:32:47.571Z,19
2023-04-18T05:35:49.470Z,19
2023-04-18T05:38:51.417Z,19.7
2023-04-18T05:41:53.404Z,18
2023-04-18T05:44:55.314Z,19.8
2023-04-18T05:47:57.633Z,17.4
2023-04-18T05:50:59.262Z,18
2023-04-18T05:54:01.229Z,17.3
2023-04-18T05:57:04.461Z,18.1
2023-04-18T06:00:05.188Z,18.7
2023-04-18T06:03:08.605Z,16.6
2023-04-18T06:06:09.076Z,17.2
2023-04-18T06:09:11.110Z,16.5
2023-04-18T06:12:13.051Z,17.5
2023-04-18T06:15:15.000Z,15.8
2023-04-18T06:18:16.970Z,16.8
2023-04-18T06:21:18.925Z,13.6
2023-04-18T06:24:20.902Z,15.3
2023-04-18T06:27:30.421Z,15.2
2023-04-18T06:30:24.817Z,18
2023-04-18T06:33:26.815Z,14
2023-04-18T06:36:28.801Z,14.3
2023-04-18T06:39:30.731Z,15.8
2023-04-18T06:42:32.697Z,18.3
2023-04-18T06:45:34.660Z,14.4
2023-04-18T06:48:36.639Z,14.8
2023-04-18T06:51:38.637Z,13.9
2023-04-18T06:54:40.585Z,15.9
2023-04-18T06:57:42.562Z,15.6
2023-04-18T07:00:44.543Z,17.4
2023-04-18T07:03:46.567Z,16.3
2023-04-18T07:06:48.453Z,15.6
2023-04-18T07:09:50.397Z,13.7
2023-04-18T07:12:52.363Z,13.5
2023-04-18T07:15:54.334Z,13.2
2023-04-18T07:18:56.323Z,12.9
2023-04-18T07:21:58.297Z,12.7
2023-04-18T07:25:00.232Z,13.2
2023-04-18T07:28:02.297Z,13.6
2023-04-18T07:31:04.224Z,12
2023-04-18T07:34:06.115Z,11.5
2023-04-18T07:37:08.084Z,11.7
2023-04-18T07:40:10.068Z,10.6
2023-04-18T07:43:11.978Z,11
2023-04-18T07:46:13.991Z,11.3
2023-04-18T07:49:16.246Z,12.2
2023-04-18T07:52:17.884Z,11.7
2023-04-18T07:55:19.850Z,11.4
2023-04-18T07:58:21.813Z,8.9
2023-04-18T08:01:23.770Z,8
2023-04-18T08:04:28.355Z,9.8
2023-04-18T08:07:27.763Z,9.8
2023-04-18T08:10:29.688Z,9.2
2023-04-18T08:13:31.666Z,10.2
2023-04-18T08:16:33.683Z,8.5
2023-04-18T08:19:35.627Z,8.5
2023-04-18T08:22:44.164Z,10.4
2023-04-18T08:25:39.592Z,10.3
2023-04-18T08:28:41.555Z,9.9
2023-04-18T08:31:43.624Z,10.7
2023-04-18T08:34:45.489Z,8.7
2023-04-18T08:37:47.482Z,8.3
2023-04-18T08:40:49.453Z,9.5
2023-04-18T08:43:51.453Z,9.9
2023-04-18T08:46:53.474Z,9.1
2023-04-18T08:49:55.418Z,11.1
2023-04-18T08:52:57.363Z,10.5
2023-04-18T08:55:59.328Z,9.5
2023-04-18T08:59:01.298Z,9.1
2023-04-18T09:02:03.298Z,8.5
2023-04-18T09:05:05.213Z,10.4
2023-04-18T09:08:07.188Z,10.3
2023-04-18T09:11:09.157Z,7.6
2023-04-18T09:14:11.153Z,7.5
2023-04-18T09:17:13.111Z,8
2023-04-18T09:20:15.043Z,7.4
2023-04-18T09:23:17.012Z,8.6
2023-04-18T09:26:19.082Z,8.1
2023-04-18T09:29:21.130Z,8.3
2023-04-18T09:32:23.150Z,7
2023-04-18T09:35:25.065Z,7.7
2023-04-18T09:38:27.066Z,7.4
2023-04-18T09:41:29.014Z,10
2023-04-18T09:44:31.095Z,7.9
2023-04-18T09:47:33.094Z,8.5
2023-04-18T09:50:35.134Z,6.8
2023-04-18T09:53:37.061Z,7.1
2023-04-18T09:56:39.036Z,10.8
2023-04-18T09:59:41.012Z,9.4
2023-04-18T10:02:43.068Z,6.9
2023-04-18T10:05:45.000Z,8.5
2023-04-18T10:08:46.978Z,8.5
2023-04-18T10:11:48.895Z,7.4
2023-04-18T10:14:50.909Z,7.7
2023-04-18T10:18:03.270Z,7.4
2023-04-18T10:20:54.825Z,7.2
2023-04-18T10:23:56.804Z,6.2
2023-04-18T10:26:58.845Z,6.8
2023-04-18T10:30:00.933Z,7.9
2023-04-18T10:33:06.971Z,7.2
2023-04-18T10:36:04.908Z,7.4
2023-04-18T10:39:06.849Z,5.5
2023-04-18T10:42:08.791Z,6.3
2023-04-18T10:45:10.871Z,7.5
2023-04-18T10:48:12.745Z,7.3
2023-04-18T10:51:14.729Z,6.7
2023-04-18T10:54:16.744Z,5.9
2023-04-18T10:57:18.666Z,7.3
2023-04-18T11:00:20.662Z,7.6
2023-04-18T11:03:22.618Z,7.7
2023-04-18T11:06:24.551Z,7.5
2023-04-18T11:09:26.523Z,7
2023-04-18T11:12:28.512Z,8.1
2023-04-18T11:15:31.128Z,7.1
2023-04-18T11:18:32.401Z,6.2
2023-04-18T11:21:34.384Z,6.7
2023-04-18T11:24:36.363Z,5.8
2023-04-18T11:27:38.319Z,5.5
2023-04-18T11:30:40.320Z,5.6
2023-04-18T11:33:42.226Z,5.6
2023-04-18T11:36:44.202Z,6.6
2023-04-18T11:39:46.136Z,5.1
2023-04-18T11:42:48.096Z,5.5
2023-04-18T11:45:50.171Z,5.6
2023-04-18T11:48:52.061Z,4.2
2023-04-18T11:51:53.990Z,6.9
2023-04-18T11:54:55.980Z,5.2
2023-04-18T11:57:58.173Z,5.5
2023-04-18T12:00:59.905Z,6.2
2023-04-18T12:04:02.278Z,5.1
2023-04-18T12:07:03.812Z,4.8
2023-04-18T12:10:05.772Z,4.6
2023-04-18T12:13:07.777Z,4.9
2023-04-18T12:16:09.737Z,6
2023-04-18T12:19:11.738Z,4.3
2023-04-18T12:22:13.702Z,5
2023-04-18T12:25:15.681Z,4.7
2023-04-18T12:28:17.675Z,5
2023-04-18T12:31:19.705Z,5.2
2023-04-18T12:34:21.591Z,6.3
2023-04-18T12:37:23.592Z,4.9
2023-04-18T12:40:25.611Z,5.3
2023-04-18T12:43:27.575Z,4.7
2023-04-18T12:46:29.581Z,5.3
2023-04-18T12:49:31.515Z,6.7
2023-04-18T12:52:33.495Z,5.1
2023-04-18T12:55:35.455Z,4.5
2023-04-18T12:58:37.488Z,5
2023-04-18T13:01:39.450Z,5.1
2023-04-18T13:04:41.562Z,4.4
2023-04-18T13:07:43.355Z,4.3
2023-04-18T13:10:45.292Z,4
2023-04-18T13:13:47.308Z,6.1
2023-04-18T13:16:49.294Z,4.7
2023-04-18T13:19:51.240Z,4.2
2023-04-18T13:22:53.211Z,4.8
2023-04-18T13:25:55.224Z,4.7
2023-04-18T13:28:57.221Z,3.9
2023-04-18T13:31:59.194Z,5
2023-04-18T13:35:01.120Z,4.1
2023-04-18T13:38:03.085Z,5.3
2023-04-18T13:41:12.575Z,4.9
2023-04-18T13:44:06.998Z,5.6
2023-04-18T13:47:09.069Z,4.8
2023-04-18T13:50:11.269Z,6.2
2023-04-18T13:53:13.068Z,4.7
2023-04-18T13:56:15.048Z,7.3
2023-04-18T13:59:17.237Z,5.1
2023-04-18T14:02:19.073Z,4.4
2023-04-18T14:05:21.013Z,4.6
2023-04-18T14:08:22.937Z,5.7
2023-04-18T14:11:24.962Z,5.1
2023-04-18T14:14:26.888Z,5.1
2023-04-18T14:17:28.904Z,5.3
2023-04-18T14:20:30.848Z,7.7
2023-04-18T14:23:32.865Z,9
2023-04-18T14:26:34.898Z,7.6
2023-04-18T14:29:36.825Z,8.8
2023-04-18T14:32:38.817Z,9.6
2023-04-18T14:35:40.770Z,11.1
2023-04-18T14:38:42.721Z,9.2
2023-04-18T14:41:44.699Z,9.8
2023-04-18T14:44:46.653Z,9.8
2023-04-18T14:47:48.672Z,11.2
2023-04-18T14:50:50.572Z,10.4
2023-04-18T14:53:52.550Z,9.5
2023-04-18T14:56:54.489Z,9.1
2023-04-18T14:59:56.457Z,9
2023-04-18T15:02:58.466Z,9.5
2023-04-18T15:06:00.554Z,9.1
2023-04-18T15:09:02.453Z,9
2023-04-18T15:12:04.442Z,7.7
2023-04-18T15:15:06.414Z,6.6
2023-04-18T15:18:08.581Z,8.4
2023-04-18T15:21:10.472Z,8.5
2023-04-18T15:24:12.671Z,9.8
2023-04-18T15:27:14.499Z,9.1
2023-04-18T15:30:16.450Z,9.4
2023-04-18T15:33:18.464Z,10
2023-04-18T15:36:20.407Z,9.8
2023-04-18T15:39:22.392Z,10.3
2023-04-18T15:42:24.324Z,10.1
2023-04-18T15:45:26.301Z,10
2023-04-18T15:48:28.311Z,9.7
2023-04-18T15:51:30.288Z,10.5
2023-04-18T15:54:32.260Z,11.4
2023-04-18T15:57:34.242Z,10.3
2023-04-18T16:00:36.190Z,15.3
2023-04-18T16:03:38.413Z,10.8
2023-04-18T16:06:40.299Z,9.8
2023-04-18T16:09:42.250Z,10.6
2023-04-18T16:12:44.201Z,10.3
2023-04-18T16:15:46.205Z,10.3
2023-04-18T16:18:48.182Z,9.4
2023-04-18T16:21:50.120Z,9.3
2023-04-18T16:24:52.218Z,9.8
2023-04-18T16:27:54.203Z,9.2
2023-04-18T16:30:56.203Z,9.1
2023-04-18T16:33:58.266Z,10.4
2023-04-18T16:37:00.366Z,11.3
2023-04-18T16:40:02.411Z,9.1
2023-04-18T16:43:04.381Z,10.7
2023-04-18T16:46:06.407Z,8.8
2023-04-18T16:49:08.291Z,7.9
2023-04-18T16:52:10.331Z,9.4
2023-04-18T16:55:12.292Z,9.3
2023-04-18T16:58:14.196Z,8.8
2023-04-18T17:01:16.215Z,8.9
2023-04-18T17:04:18.267Z,8.5
2023-04-18T17:07:20.108Z,9.6
2023-04-18T17:10:22.052Z,8.4
2023-04-18T17:13:24.036Z,8.4
2023-04-18T17:16:26.020Z,9.9
2023-04-18T17:19:27.955Z,8
2023-04-18T17:22:29.922Z,7.9
2023-04-18T17:25:31.890Z,9.6
2023-04-18T17:28:33.987Z,8.2
2023-04-18T17:31:35.868Z,8.5
2023-04-18T17:34:37.799Z,11
2023-04-18T17:37:39.764Z,9.3
2023-04-18T17:40:41.757Z,8.5
2023-04-18T17:43:43.677Z,8.3
2023-04-18T17:46:45.634Z,7.4
2023-04-18T17:49:47.581Z,8.4
2023-04-18T17:52:49.693Z,7.4
2023-04-18T17:55:51.517Z,7.8
2023-04-18T17:58:55.331Z,10.1
2023-04-18T18:01:55.544Z,9.5
2023-04-18T18:04:57.420Z,11.3
2023-04-18T18:07:59.374Z,10.8
2023-04-18T18:11:01.388Z,8.9
2023-04-18T18:14:03.307Z,9.7
2023-04-18T18:17:05.332Z,9.3
2023-04-18T18:20:07.272Z,9.4
2023-04-18T18:23:09.184Z,9.2
2023-04-18T18:26:11.205Z,10.6
2023-04-18T18:29:13.572Z,10.8
2023-04-18T18:32:15.127Z,10.1
2023-04-18T18:35:17.076Z,11.1
2023-04-18T18:38:19.026Z,10.6
2023-04-18T18:41:20.957Z,9.8
2023-04-18T18:44:22.970Z,10.8
2023-04-18T18:47:24.941Z,10.5
2023-04-18T18:50:26.875Z,9.4
2023-04-18T18:53:28.833Z,10.3
2023-04-18T18:56:30.801Z,10.4
2023-04-18T18:59:32.780Z,11.4
2023-04-18T19:02:34.914Z,11
2023-04-18T19:05:36.675Z,9.6
2023-04-18T19:08:38.661Z,10.2
2023-04-18T19:11:40.622Z,10.9
2023-04-18T19:14:42.616Z,10.7
2023-04-18T19:17:44.945Z,11.9
2023-04-18T19:20:46.749Z,9.7
2023-04-18T19:23:48.719Z,10.7
2023-04-18T19:26:50.657Z,10.9
2023-04-18T19:29:52.681Z,13.9
2023-04-18T19:32:54.659Z,10.6
2023-04-18T19:35:56.604Z,9.1
2023-04-18T19:38:58.626Z,11
2023-04-18T19:42:00.464Z,10.1
2023-04-18T19:45:02.485Z,11.9
2023-04-18T19:48:04.395Z,9.6
2023-04-18T19:51:06.373Z,9.8
2023-04-18T19:54:08.365Z,11.1
2023-04-18T19:57:10.279Z,10
2023-04-18T20:00:12.276Z,11.1
2023-04-18T20:03:14.351Z,10.7
2023-04-18T20:06:16.203Z,10.7
2023-04-18T20:09:18.212Z,9.7
2023-04-18T20:12:20.150Z,9.4
2023-04-18T20:15:22.086Z,11
2023-04-18T20:18:24.126Z,12.8
2023-04-18T20:21:26.066Z,10.2
2023-04-18T20:24:28.134Z,10.4
2023-04-18T20:27:30.276Z,9.9
2023-04-18T20:30:32.013Z,11.3
2023-04-18T20:33:33.964Z,9.5
2023-04-18T20:36:35.945Z,9.9
2023-04-18T20:39:37.917Z,10.9
2023-04-18T20:42:39.903Z,8.9
2023-04-18T20:45:41.944Z,12
2023-04-18T20:48:43.883Z,10
2023-04-18T20:51:45.869Z,11
2023-04-18T20:54:47.807Z,9.9
2023-04-18T20:57:49.751Z,9.4
2023-04-18T21:00:51.689Z,8.3
2023-04-18T21:03:53.766Z,7.5
2023-04-18T21:06:55.647Z,10.8
2023-04-18T21:09:57.654Z,8.6
2023-04-18T21:13:00.727Z,9.8
2023-04-18T21:16:01.577Z,9.5
2023-04-18T21:19:03.562Z,10.1
2023-04-18T21:22:05.483Z,9.3
2023-04-18T21:25:07.488Z,7.2
2023-04-18T21:28:09.425Z,8.4
2023-04-18T21:31:11.429Z,8.9
2023-04-18T21:34:13.471Z,8.5
2023-04-18T21:37:15.282Z,8.7
2023-04-18T21:40:17.234Z,8.6
2023-04-18T21:43:19.171Z,8.2
2023-04-18T21:46:21.257Z,8.5
2023-04-18T21:49:23.122Z,9.7
2023-04-18T21:52:25.093Z,8.6
2023-04-18T21:55:27.050Z,8.3
2023-04-18T21:58:29.062Z,8.6
2023-04-18T22:01:31.015Z,7.9
2023-04-18T22:04:33.013Z,8
2023-04-18T22:07:40.720Z,9.1
2023-04-18T22:10:36.918Z,7.2
2023-04-18T22:13:38.865Z,8.2
2023-04-18T22:16:40.873Z,7.9
2023-04-18T22:19:42.870Z,7
2023-04-18T22:22:44.857Z,7.5
2023-04-18T22:25:46.797Z,7.2
2023-04-18T22:28:48.801Z,6
2023-04-18T22:31:50.715Z,7.4
2023-04-18T22:34:52.720Z,8
2023-04-18T22:37:54.667Z,6.3
2023-04-18T22:40:56.616Z,7.6
2023-04-18T22:43:58.621Z,7.6
2023-04-18T22:47:00.699Z,7.1
2023-04-18T22:50:02.497Z,6.7
2023-04-18T22:53:04.512Z,5
2023-04-18T22:56:06.459Z,6.9
2023-04-18T22:59:08.433Z,5.4
2023-04-18T23:02:10.475Z,6.2
2023-04-18T23:05:12.399Z,4.8
2023-04-18T23:08:14.345Z,5.3
2023-04-18T23:11:16.308Z,6.4
2023-04-18T23:14:18.270Z,5.8
2023-04-18T23:17:20.222Z,5.4
2023-04-18T23:20:22.167Z,6
2023-04-18T23:23:24.126Z,6.2
2023-04-18T23:26:26.078Z,6.2
2023-04-18T23:29:28.030Z,5.3
2023-04-18T23:32:30.014Z,6.1
2023-04-18T23:35:31.965Z,6.4
2023-04-18T23:38:33.922Z,6.5
2023-04-18T23:41:35.897Z,6.8
2023-04-18T23:44:37.863Z,6.5
2023-04-18T23:47:39.930Z,7.1
2023-04-18T23:50:41.820Z,6
2023-04-18T23:53:43.752Z,7.1
2023-04-18T23:56:41.306Z,39.3
2023-04-18T23:56:45.722Z,6.8
2023-04-18T23:59:47.763Z,6.3
